Spring Valley, Texas
Current Conditions -  °F | °C
As of 8:35 PM on Sunday 23 Nov 2014 (Local Time) from KMCJ Reporting Station
Clear Clear  
Wind Chill: 66°   Ceiling: Unl
Heat Index: 66°   Visibility: 10mi
Dew Point: 57°   Wind: 7mph
Humidity: 73%   Direction: 200°SSW
Pressure: 29.63"   Gusts: 20mph
Location:  29.7698°N, 95.5164°W
Report Text: KMCJ 240235Z AUTO 20006G17KT 010V030 10SM CLR 19/14 A2963 RMK AO1
Loading
Personal Weather Stations






























Interactive Weather Map New forecast layout! Learn more

10-Day Weather Forecast

Advertisements
Track Severe Weather on mobile